PABRPAKU

Guest
Details From PABR - WILEY POST WILL ROGERS MEM
To PAKU - Ugnu-Kuparuk
Flight Number -
Tags generated
Created
Modified
Stats Distance 153 nm / 283 km
Max Altitude 17,700 ft / 5,395 m
Waypoints 3
Social Downloads 0
Likes 0
Share

Download

Looking for another format? Having issues loading an existing format? Contact us
Advertisement - Login to hide

Notes

Basic altitude profile: - Ascent Rate: 2500ft/min - Ascent Speed: 250kts - Cruise Altitude: 35000ft - Cruise Speed: 420kts - Descent Rate: 1500ft/min - Descent Speed: 250kts Options: - Use NATs: yes - Use PACOTS: yes - Use low airways: yes - Use high airways: yes

Route

PABR OKIKE PAKU

ID Type Via Altitude (ft/m) Position (lat/lon) Dist (leg/tot) Name
O PABR APT - 0 / 0 71.28466 / -156.76875 - / 0 nm WILEY POST WILL ROGERS MEM
OKIKE FIX - 17,700 / 5,395 71.01137 / -154.35326 49 / 49 nm
O PAKU APT - 0 / 0 70.33082 / -149.59755 102 / 152 nm Ugnu-Kuparuk

Altitude Profile

Advertisement - Login to hide

PABR

Details ICAO PABR (BRW)
Name Wiley Post-Will Rogers Memorial
Region USA (Alaska)
Timezone America/Anchorage (UTC-8.0)
Stats Elevation 47 ft / 14 m (AMSL)
Location 71.284900° -156.769000°
Runways 1
Magnetic Variation 12.666° E

METAR

PABR 160253Z 02009KT 8SM BKN007 BKN018 OVC024 M03/M06 A3001

Decode

TAF

TAF PABR 152330Z 1600/1624 03010KT P6SM VCFG OVC006 FM160900 03008KT 4SM BR BKN007 OVC015 FM161200 03008KT 2SM BR OVC007 FM161800 03010KT 4SM BR BKN007 OVC015

Decode

Departure Runways

ID Width Length Bearing (true/mag) Surface Threshold Overrun Markings Lighting
07 150 ft / 46 m 7,107 ft / 2,166 m 89.93° / 77.26° ASPHALT 600 ft / 183 m 177 ft / 54 m PREC-APP EDGE THRESHOLD MALSR
25 150 ft / 46 m 7,107 ft / 2,166 m 269.99° / 257.32° ASPHALT 600 ft / 183 m 187 ft / 57 m PREC-APP EDGE THRESHOLD REIL-OMNI

PAKU

Details ICAO PAKU (UUK)
Name Ugnu-Kuparuk
Region USA (Alaska)
Timezone America/Anchorage (UTC-8.0)
Stats Elevation 67 ft / 20 m (AMSL)
Location 70.330800° -149.598000°
Runways 1
Magnetic Variation 15.637° E

METAR

PAKU 160145Z 26006KT 10SM R06/P6000FT OVC009 M03/M03 A2995

Decode

TAF

Not found

Destination Runways

ID Width Length Bearing (true/mag) Surface Threshold Overrun Markings Lighting
05 130 ft / 40 m 6,006 ft / 1,831 m 78.98° / 63.34° GRAVEL 0 ft / 0 m 0 ft / 0 m PREC-APP EDGE THRESHOLD SSALR
23 130 ft / 40 m 6,006 ft / 1,831 m 259.02° / 243.39° GRAVEL 0 ft / 0 m 0 ft / 0 m APP EDGE THRESHOLD SSALR